Stella Lucy — 9V2548 — position and weather

sailwx.info

Track history (hours):
 
Tides and Currents Weather Stations Pressure Air Temp Water Temp Dewpoint Dewpoint Depression Visibility Wind Speed Wind Dir Waves Ship Positions

Stella Lucy

Last reported at 2017-Oct-18 11:32 UTC. Time now 2017-Oct-19 00:22 UTC.
Position N 37°14' W 076°05'.

Length 295 m; draft 10 m.

Type: Cargo ship. MMSI: 563312000.

Date/timePositionNaut miles runAvg speedWind from/ knotsBaromVisibWave heightAir tempDewpointWater temp
2017-Oct-18 11:32N 37°14' W 076°05'0 0.5
2017-Oct-18 11:29N 37°14' W 076°05'0 0.3
2017-Oct-18 10:32N 37°14' W 076°05'0 0.1
2017-Oct-18 10:23N 37°14' W 076°05'0 0.0
2017-Oct-18 09:56N 37°14' W 076°05'0 0.0
2017-Oct-18 09:29N 37°14' W 076°05'0 0.1
2017-Oct-18 08:56N 37°14' W 076°05'3 0.9
2017-Oct-18 05:39N 37°13' W 076°09'1111.9
2017-Oct-18 04:45N 37°03' W 076°04'312.2
2017-Oct-18 04:29N 37°00' W 076°02'3 6.5
2017-Oct-18 04:00N 36°57' W 076°02'713.7
2017-Oct-18 03:30N 36°59' W 076°10'713.0
2017-Oct-18 03:00N 36°60' W 076°18'6 0.3
2017-Oct-17 07:43N 36°58' W 076°26'0 0.0
2017-Oct-17 07:13N 36°58' W 076°26'0 0.0
2017-Oct-17 06:49N 36°58' W 076°26'0 0.0
2017-Oct-17 06:25N 36°58' W 076°26'0 0.0
2017-Oct-17 05:55N 36°58' W 076°26'0 0.0
2017-Oct-17 05:13N 36°58' W 076°26'0 0.0
2017-Oct-17 04:55N 36°58' W 076°26'0 0.0
2017-Oct-17 04:13N 36°58' W 076°26'0 0.0
2017-Oct-17 03:49N 36°58' W 076°26'0 0.0
2017-Oct-17 03:13N 36°58' W 076°26'0 0.0
2017-Oct-17 02:49N 36°58' W 076°26'0 0.0
2017-Oct-17 02:25N 36°58' W 076°26'0 0.0
2017-Oct-17 00:13N 36°58' W 076°26'0 0.0
2017-Oct-16 23:49N 36°58' W 076°26'0 0.0
2017-Oct-16 23:25N 36°58' W 076°26'0 0.0
2017-Oct-16 22:49N 36°58' W 076°26'0 0.0
2017-Oct-16 22:19N 36°58' W 076°26'0 0.0
2017-Oct-16 21:55N 36°58' W 076°26'0 0.0
2017-Oct-16 21:07N 36°58' W 076°26'0 0.0
2017-Oct-16 20:55N 36°58' W 076°26'0 0.0
2017-Oct-16 20:22N 36°58' W 076°26'0 0.0
2017-Oct-16 20:00N 36°58' W 076°26'0 0.5
2017-Oct-16 19:31N 36°58' W 076°26'2 4.4
2017-Oct-16 19:01N 36°57' W 076°23'510.0
2017-Oct-16 18:30N 36°60' W 076°18'611.8
2017-Oct-16 18:00N 36°59' W 076°10'611.6
2017-Oct-16 17:30N 36°58' W 076°04'510.2
2017-Oct-16 17:00N 36°56' W 075°57'4 8.7
2017-Oct-16 16:31N 36°54' W 075°53'5 9.3
2017-Oct-16 16:00N 36°51' W 075°48'4 8.6
2017-Oct-16 15:30N 36°49' W 075°43'  
Track history (hours):
 
Tides and Currents Weather Stations Pressure Air Temp Water Temp Dewpoint Dewpoint Depression Visibility Wind Speed Wind Dir Waves Ship Positions

Stella Lucy

Last reported at 2017-Oct-18 11:32 UTC. Time now 2017-Oct-19 00:22 UTC.
Position N 37°14' W 076°05'.

Length 295 m; draft 10 m.

Type: Cargo ship. MMSI: 563312000.

Date/timePositionNaut miles runAvg speedWind from/ knotsBaromVisibWave heightAir tempDewpointWater temp
2017-Oct-18 11:32N 37°14' W 076°05'0 0.5
2017-Oct-18 11:29N 37°14' W 076°05'0 0.3
2017-Oct-18 10:32N 37°14' W 076°05'0 0.1
2017-Oct-18 10:23N 37°14' W 076°05'0 0.0
2017-Oct-18 09:56N 37°14' W 076°05'0 0.0
2017-Oct-18 09:29N 37°14' W 076°05'0 0.1
2017-Oct-18 08:56N 37°14' W 076°05'3 0.9
2017-Oct-18 05:39N 37°13' W 076°09'1111.9
2017-Oct-18 04:45N 37°03' W 076°04'312.2
2017-Oct-18 04:29N 37°00' W 076°02'3 6.5
2017-Oct-18 04:00N 36°57' W 076°02'713.7
2017-Oct-18 03:30N 36°59' W 076°10'713.0
2017-Oct-18 03:00N 36°60' W 076°18'6 0.3
2017-Oct-17 07:43N 36°58' W 076°26'0 0.0
2017-Oct-17 07:13N 36°58' W 076°26'0 0.0
2017-Oct-17 06:49N 36°58' W 076°26'0 0.0
2017-Oct-17 06:25N 36°58' W 076°26'0 0.0
2017-Oct-17 05:55N 36°58' W 076°26'0 0.0
2017-Oct-17 05:13N 36°58' W 076°26'0 0.0
2017-Oct-17 04:55N 36°58' W 076°26'0 0.0
2017-Oct-17 04:13N 36°58' W 076°26'0 0.0
2017-Oct-17 03:49N 36°58' W 076°26'0 0.0
2017-Oct-17 03:13N 36°58' W 076°26'0 0.0
2017-Oct-17 02:49N 36°58' W 076°26'0 0.0
2017-Oct-17 02:25N 36°58' W 076°26'0 0.0
2017-Oct-17 00:13N 36°58' W 076°26'0 0.0
2017-Oct-16 23:49N 36°58' W 076°26'0 0.0
2017-Oct-16 23:25N 36°58' W 076°26'0 0.0
2017-Oct-16 22:49N 36°58' W 076°26'0 0.0
2017-Oct-16 22:19N 36°58' W 076°26'0 0.0
2017-Oct-16 21:55N 36°58' W 076°26'0 0.0
2017-Oct-16 21:07N 36°58' W 076°26'0 0.0
2017-Oct-16 20:55N 36°58' W 076°26'0 0.0
2017-Oct-16 20:22N 36°58' W 076°26'0 0.0
2017-Oct-16 20:00N 36°58' W 076°26'0 0.5
2017-Oct-16 19:31N 36°58' W 076°26'2 4.4
2017-Oct-16 19:01N 36°57' W 076°23'510.0
2017-Oct-16 18:30N 36°60' W 076°18'611.8
2017-Oct-16 18:00N 36°59' W 076°10'611.6
2017-Oct-16 17:30N 36°58' W 076°04'510.2
2017-Oct-16 17:00N 36°56' W 075°57'4 8.7
2017-Oct-16 16:31N 36°54' W 075°53'5 9.3
2017-Oct-16 16:00N 36°51' W 075°48'4 8.6
2017-Oct-16 15:30N 36°49' W 075°43'  

Dump ship's entire track history